createdAt,value
2023-05-19T00:01:13.657Z,1.60
2023-05-19T00:03:52.537Z,1.60
2023-05-19T00:06:26.940Z,1.73
2023-05-19T00:08:58.764Z,2.10
2023-05-19T00:11:29.676Z,1.60
2023-05-19T00:13:58.481Z,1.90
2023-05-19T00:16:34.550Z,1.75
2023-05-19T00:19:03.453Z,1.52
2023-05-19T00:21:31.404Z,1.77
2023-05-19T00:23:58.544Z,1.33
2023-05-19T00:26:27.109Z,1.10
2023-05-19T00:28:54.118Z,1.60
2023-05-19T00:31:20.740Z,1.40
2023-05-19T00:33:52.116Z,1.33
2023-05-19T00:36:18.765Z,1.20
2023-05-19T00:38:45.265Z,1.42
2023-05-19T00:41:12.140Z,1.45
2023-05-19T00:43:38.686Z,1.55
2023-05-19T00:46:05.436Z,1.40
2023-05-19T00:48:36.803Z,1.27
2023-05-19T00:51:06.495Z,1.35
2023-05-19T00:53:37.644Z,1.50
2023-05-19T00:56:04.499Z,1.52
2023-05-19T00:58:33.507Z,1.50
2023-05-19T01:01:04.248Z,1.27
2023-05-19T01:03:32.861Z,1.30
2023-05-19T01:06:04.969Z,1.38
2023-05-19T01:08:38.630Z,1.38
2023-05-19T01:11:06.929Z,1.20
2023-05-19T01:13:35.350Z,1.15
2023-05-19T01:16:12.580Z,1.10
2023-05-19T01:18:46.905Z,1.10
2023-05-19T01:21:13.989Z,1.00
2023-05-19T01:24:12.246Z,1.25
2023-05-19T01:27:00.134Z,1.15
2023-05-19T01:29:42.748Z,1.10
2023-05-19T01:32:10.686Z,1.13
2023-05-19T01:34:43.023Z,1.20
2023-05-19T01:37:10.019Z,1.40
2023-05-19T01:39:37.460Z,1.20
2023-05-19T01:42:07.798Z,1.20
2023-05-19T01:44:36.702Z,1.63
2023-05-19T01:47:07.309Z,1.50
2023-05-19T01:49:33.960Z,1.10
2023-05-19T01:52:00.579Z,1.58
2023-05-19T01:54:27.065Z,1.30
2023-05-19T01:57:23.401Z,1.27
2023-05-19T02:00:20.522Z,1.35
2023-05-19T02:03:12.708Z,0.98
2023-05-19T02:06:03.336Z,1.20
2023-05-19T02:09:11.229Z,1.38
2023-05-19T02:11:42.287Z,1.10
2023-05-19T02:14:29.757Z,0.95
2023-05-19T02:16:58.003Z,1.13
2023-05-19T02:19:27.120Z,1.15
2023-05-19T02:21:54.067Z,0.90
2023-05-19T02:24:22.782Z,1.00
2023-05-19T02:26:50.373Z,1.17
2023-05-19T02:29:17.248Z,0.90
2023-05-19T02:31:44.147Z,1.13
2023-05-19T02:34:10.727Z,1.25
2023-05-19T02:36:41.028Z,1.20
2023-05-19T02:39:07.605Z,1.20
2023-05-19T02:41:38.428Z,1.40
2023-05-19T02:44:05.766Z,1.27
2023-05-19T02:46:32.505Z,1.23
2023-05-19T02:49:00.009Z,1.20
2023-05-19T02:51:28.930Z,1.10
2023-05-19T02:53:55.567Z,1.20
2023-05-19T02:56:22.195Z,1.40
2023-05-19T02:58:48.847Z,1.58
2023-05-19T03:01:15.774Z,1.30
2023-05-19T03:03:44.418Z,1.30
2023-05-19T03:06:12.638Z,1.48
2023-05-19T03:08:40.837Z,1.20
2023-05-19T03:11:08.995Z,1.42
2023-05-19T03:13:35.716Z,1.60
2023-05-19T03:16:04.322Z,1.48
2023-05-19T03:18:33.824Z,1.60
2023-05-19T03:21:00.994Z,1.27
2023-05-19T03:23:28.152Z,1.42
2023-05-19T03:25:56.120Z,1.70
2023-05-19T03:28:27.376Z,1.58
2023-05-19T03:30:58.625Z,1.45
2023-05-19T03:33:25.308Z,1.60
2023-05-19T03:35:53.096Z,1.67
2023-05-19T03:38:19.600Z,1.77
2023-05-19T03:40:46.326Z,1.38
2023-05-19T03:43:13.277Z,1.60
2023-05-19T03:45:40.045Z,1.80
2023-05-19T03:48:06.763Z,1.30
2023-05-19T03:50:34.131Z,1.40
2023-05-19T03:53:01.050Z,1.30
2023-05-19T03:55:30.700Z,1.52
2023-05-19T03:57:57.383Z,1.73
2023-05-19T04:00:24.213Z,1.25
2023-05-19T04:02:51.381Z,1.42
2023-05-19T04:05:18.075Z,1.73
2023-05-19T04:07:46.727Z,1.20
2023-05-19T04:10:13.897Z,1.30
2023-05-19T04:12:40.734Z,1.20
2023-05-19T04:15:07.983Z,1.15
2023-05-19T04:17:34.604Z,1.48
2023-05-19T04:20:01.472Z,1.20
2023-05-19T04:22:34.502Z,1.10
2023-05-19T04:25:01.799Z,1.10
2023-05-19T04:27:30.009Z,1.10
2023-05-19T04:29:56.597Z,1.20
2023-05-19T04:32:23.373Z,1.08
2023-05-19T04:34:50.222Z,1.30
2023-05-19T04:37:16.816Z,1.40
2023-05-19T04:39:45.239Z,1.40
2023-05-19T04:42:12.068Z,1.30
2023-05-19T04:44:40.261Z,1.17
2023-05-19T04:47:10.434Z,1.48
2023-05-19T04:49:39.934Z,1.20
2023-05-19T04:52:07.998Z,1.08
2023-05-19T04:54:35.251Z,1.40
2023-05-19T04:57:05.862Z,1.25
2023-05-19T04:59:32.613Z,1.10
2023-05-19T05:01:59.202Z,1.15
2023-05-19T05:04:26.033Z,1.27
2023-05-19T05:06:52.759Z,1.27
2023-05-19T05:09:20.051Z,1.30
2023-05-19T05:11:47.033Z,1.23
2023-05-19T05:14:13.849Z,1.10
2023-05-19T05:16:40.908Z,1.08
2023-05-19T05:19:10.100Z,1.35
2023-05-19T05:21:37.075Z,1.10
2023-05-19T05:24:06.365Z,1.20
2023-05-19T05:26:34.532Z,0.93
2023-05-19T05:29:01.663Z,1.23
2023-05-19T05:31:28.233Z,1.38
2023-05-19T05:33:54.788Z,1.00
2023-05-19T05:36:21.432Z,1.20
2023-05-19T05:38:48.119Z,1.20
2023-05-19T05:41:16.983Z,1.10
2023-05-19T05:43:43.583Z,0.90
2023-05-19T05:46:10.243Z,1.00
2023-05-19T05:48:37.182Z,1.45
2023-05-19T05:51:04.185Z,1.33
2023-05-19T05:53:36.013Z,1.40
2023-05-19T05:56:02.759Z,1.20
2023-05-19T05:58:29.304Z,1.30
2023-05-19T06:00:58.089Z,1.38
2023-05-19T06:03:24.782Z,1.30
2023-05-19T06:05:51.790Z,1.50
2023-05-19T06:08:18.488Z,1.40
2023-05-19T06:10:47.235Z,1.60
2023-05-19T06:13:16.303Z,1.52
2023-05-19T06:15:42.878Z,1.60
2023-05-19T06:18:13.044Z,1.65
2023-05-19T06:20:39.580Z,1.70
2023-05-19T06:23:06.106Z,1.80
2023-05-19T06:25:39.269Z,1.90
2023-05-19T06:28:06.106Z,1.92
2023-05-19T06:30:33.072Z,1.60
2023-05-19T06:32:59.870Z,1.73
2023-05-19T06:35:26.569Z,1.48
2023-05-19T06:37:56.358Z,1.60
2023-05-19T06:40:23.254Z,1.60
2023-05-19T06:42:49.839Z,1.55
2023-05-19T06:45:16.686Z,1.63
2023-05-19T06:47:44.544Z,2.08
2023-05-19T06:50:11.199Z,1.65
2023-05-19T06:52:41.497Z,1.65
2023-05-19T06:55:08.303Z,1.40
2023-05-19T06:57:34.974Z,1.70
2023-05-19T07:00:01.651Z,1.40
2023-05-19T07:02:28.379Z,1.25
2023-05-19T07:04:55.026Z,1.10
2023-05-19T07:07:21.603Z,1.52
2023-05-19T07:09:48.281Z,1.40
2023-05-19T07:12:14.772Z,1.70
2023-05-19T07:14:41.328Z,1.95
2023-05-19T07:17:07.860Z,1.42
2023-05-19T07:19:34.359Z,1.60
2023-05-19T07:22:01.009Z,1.20
2023-05-19T07:24:27.668Z,1.42
2023-05-19T07:26:56.473Z,1.63
2023-05-19T07:29:23.254Z,1.55
2023-05-19T07:31:54.257Z,1.70
2023-05-19T07:34:21.963Z,1.63
2023-05-19T07:36:48.496Z,1.90
2023-05-19T07:39:15.056Z,1.40
2023-05-19T07:41:44.204Z,1.50
2023-05-19T07:44:10.925Z,1.58
2023-05-19T07:46:37.965Z,1.75
2023-05-19T07:49:04.664Z,1.90
2023-05-19T07:51:31.827Z,1.60
2023-05-19T07:54:02.305Z,1.90
2023-05-19T07:56:29.748Z,1.60
2023-05-19T07:58:56.266Z,2.05
2023-05-19T08:01:23.085Z,1.60
2023-05-19T08:03:49.787Z,1.70
2023-05-19T08:06:16.531Z,1.60
2023-05-19T08:08:43.159Z,1.60
2023-05-19T08:11:12.049Z,1.60
2023-05-19T08:13:38.599Z,1.60
2023-05-19T08:16:05.533Z,1.70
2023-05-19T08:21:22.563Z,1.77
2023-05-19T08:23:52.411Z,2.03
2023-05-19T08:26:19.137Z,1.50
2023-05-19T08:28:46.028Z,1.75
2023-05-19T08:31:12.620Z,2.15
2023-05-19T08:33:39.297Z,1.70
2023-05-19T08:36:06.681Z,1.90
2023-05-19T08:38:33.428Z,2.10
2023-05-19T08:41:00.150Z,1.67
2023-05-19T08:43:26.766Z,1.40
2023-05-19T08:45:54.199Z,2.42
2023-05-19T08:48:23.129Z,2.00
2023-05-19T08:51:01.369Z,1.85
2023-05-19T08:53:36.742Z,1.70
2023-05-19T08:56:13.325Z,1.65
2023-05-19T08:58:42.562Z,1.63
2023-05-19T09:01:10.037Z,1.70
2023-05-19T09:03:39.263Z,2.15
2023-05-19T09:06:07.818Z,2.10
2023-05-19T09:08:35.115Z,2.50
2023-05-19T09:11:01.690Z,2.38
2023-05-19T09:13:28.373Z,2.22
2023-05-19T09:15:57.807Z,2.22
2023-05-19T09:18:28.391Z,2.10
2023-05-19T09:21:02.525Z,2.28
2023-05-19T09:23:33.535Z,2.08
2023-05-19T09:26:07.425Z,2.50
2023-05-19T09:28:36.469Z,2.08
2023-05-19T09:34:00.261Z,2.40
2023-05-19T09:36:29.653Z,2.20
2023-05-19T09:38:56.243Z,2.63
2023-05-19T09:41:23.592Z,2.60
2023-05-19T09:43:56.606Z,2.10
2023-05-19T09:46:29.031Z,2.00
2023-05-19T09:48:59.126Z,2.40
2023-05-19T09:51:25.825Z,2.08
2023-05-19T09:53:53.249Z,2.28
2023-05-19T09:56:23.747Z,2.30
2023-05-19T09:58:52.518Z,1.95
2023-05-19T10:01:19.539Z,2.20
2023-05-19T10:03:46.357Z,2.78
2023-05-19T10:06:15.617Z,2.40
2023-05-19T10:08:42.703Z,2.25
2023-05-19T10:11:11.338Z,2.25
2023-05-19T10:13:39.116Z,2.10
2023-05-19T10:16:06.742Z,2.50
2023-05-19T10:18:33.694Z,2.00
2023-05-19T10:21:00.755Z,2.20
2023-05-19T10:23:27.508Z,2.05
2023-05-19T10:25:56.976Z,2.10
2023-05-19T10:28:28.127Z,2.60
2023-05-19T10:30:58.758Z,2.22
2023-05-19T10:33:42.827Z,2.47
2023-05-19T10:36:45.881Z,2.22
2023-05-19T10:39:25.352Z,2.30
2023-05-19T10:42:20.684Z,2.25
2023-05-19T10:45:05.837Z,1.92
2023-05-19T10:47:33.710Z,2.25
2023-05-19T10:50:06.809Z,2.22
2023-05-19T10:52:37.457Z,2.20
2023-05-19T10:55:04.909Z,2.38
2023-05-19T10:57:34.716Z,2.22
2023-05-19T11:00:27.586Z,1.90
2023-05-19T11:02:57.607Z,2.03
2023-05-19T11:05:30.535Z,2.20
2023-05-19T11:08:06.229Z,2.47
2023-05-19T11:10:32.845Z,2.35
2023-05-19T11:13:00.020Z,2.60
2023-05-19T11:15:27.839Z,2.50
2023-05-19T11:17:58.652Z,2.15
2023-05-19T11:20:27.071Z,2.00
2023-05-19T11:23:06.927Z,2.53
2023-05-19T11:25:48.199Z,2.30
2023-05-19T11:28:26.363Z,2.10
2023-05-19T11:30:54.997Z,2.67
2023-05-19T11:33:27.374Z,2.65
2023-05-19T11:35:58.101Z,2.20
2023-05-19T11:38:29.661Z,2.10
2023-05-19T11:40:56.645Z,2.00
2023-05-19T11:43:26.776Z,2.30
2023-05-19T11:45:55.053Z,2.40
2023-05-19T11:48:22.548Z,2.20
2023-05-19T11:50:49.939Z,2.83
2023-05-19T11:53:16.983Z,2.53
2023-05-19T11:55:46.968Z,2.03
2023-05-19T11:58:14.462Z,2.25
2023-05-19T12:00:45.966Z,1.90
2023-05-19T12:03:13.368Z,1.95
2023-05-19T12:05:45.670Z,1.65
2023-05-19T12:08:13.082Z,1.73
2023-05-19T12:10:39.974Z,1.50
2023-05-19T12:13:09.619Z,1.67
2023-05-19T12:15:36.862Z,1.55
2023-05-19T12:18:03.952Z,1.35
2023-05-19T12:20:32.604Z,1.38
2023-05-19T12:23:00.573Z,1.42
2023-05-19T12:25:28.579Z,1.23
2023-05-19T12:28:00.777Z,1.48
2023-05-19T12:30:31.590Z,1.40
2023-05-19T12:32:58.724Z,1.35
2023-05-19T12:35:36.323Z,1.30
2023-05-19T12:38:06.920Z,1.30
2023-05-19T12:40:41.304Z,1.05
2023-05-19T12:43:09.679Z,1.20
2023-05-19T12:45:37.389Z,1.10
2023-05-19T12:48:06.583Z,1.27
2023-05-19T12:50:34.373Z,1.42
2023-05-19T12:53:01.496Z,1.20
2023-05-19T12:55:28.276Z,1.55
2023-05-19T12:58:00.644Z,1.40
2023-05-19T13:00:32.543Z,1.30
2023-05-19T13:03:07.474Z,1.58
2023-05-19T13:05:37.928Z,1.57
2023-05-19T13:08:11.649Z,1.20
2023-05-19T13:10:39.463Z,1.15
2023-05-19T13:13:08.691Z,1.20
2023-05-19T13:15:39.432Z,1.10
2023-05-19T13:18:08.808Z,1.20
2023-05-19T13:20:37.080Z,1.23
2023-05-19T13:23:04.929Z,1.15
2023-05-19T13:25:34.155Z,1.17
2023-05-19T13:28:03.828Z,1.58
2023-05-19T13:30:30.762Z,1.25
2023-05-19T13:32:59.277Z,1.30
2023-05-19T13:35:26.111Z,1.35
2023-05-19T13:37:52.675Z,1.30
2023-05-19T13:40:19.386Z,1.33
2023-05-19T13:42:46.447Z,1.40
2023-05-19T13:45:13.959Z,1.48
2023-05-19T13:47:40.714Z,1.25
2023-05-19T13:50:07.675Z,1.40
2023-05-19T13:52:34.288Z,1.27
2023-05-19T13:55:00.777Z,1.10
2023-05-19T13:57:27.545Z,1.88
2023-05-19T14:00:02.656Z,1.38
2023-05-19T14:02:30.670Z,0.98
2023-05-19T14:04:57.715Z,1.20
2023-05-19T14:07:25.604Z,1.38
2023-05-19T14:09:52.603Z,1.23
2023-05-19T14:12:20.227Z,1.55
2023-05-19T14:14:50.196Z,1.92
2023-05-19T14:17:16.794Z,1.38
2023-05-19T14:19:43.307Z,2.20
2023-05-19T14:22:09.947Z,1.60
2023-05-19T14:24:36.504Z,1.52
2023-05-19T14:27:05.041Z,1.45
2023-05-19T14:29:31.638Z,1.50
2023-05-19T14:31:58.252Z,1.70
2023-05-19T14:34:24.950Z,1.52
2023-05-19T14:36:51.655Z,1.40
2023-05-19T14:39:21.720Z,1.60
2023-05-19T14:41:51.008Z,1.50
2023-05-19T14:44:17.723Z,1.90
2023-05-19T14:46:44.257Z,1.92
2023-05-19T14:49:12.598Z,1.80
2023-05-19T14:51:39.113Z,1.67
2023-05-19T14:54:05.826Z,1.77
2023-05-19T14:56:32.402Z,1.50
2023-05-19T14:58:59.022Z,1.40
2023-05-19T15:01:25.945Z,1.58
2023-05-19T15:03:52.625Z,1.50
2023-05-19T15:06:19.282Z,1.70
2023-05-19T15:08:45.960Z,2.03
2023-05-19T15:11:12.561Z,1.88
2023-05-19T15:13:39.371Z,1.98
2023-05-19T15:16:17.454Z,1.88
2023-05-19T15:18:51.490Z,1.90
2023-05-19T15:21:18.165Z,1.80
2023-05-19T15:23:44.827Z,2.10
2023-05-19T15:26:11.424Z,2.13
2023-05-19T15:28:38.019Z,1.52
2023-05-19T15:31:04.652Z,1.92
2023-05-19T15:33:31.178Z,2.53
2023-05-19T15:35:57.674Z,2.20
2023-05-19T15:38:24.251Z,2.47
2023-05-19T15:40:51.177Z,2.10
2023-05-19T15:43:21.803Z,1.92
2023-05-19T15:45:50.148Z,1.88
2023-05-19T15:48:16.733Z,2.10
2023-05-19T15:50:43.322Z,2.10
2023-05-19T15:53:11.018Z,2.03
2023-05-19T15:55:39.977Z,2.10
2023-05-19T15:58:07.698Z,1.95
2023-05-19T16:00:34.628Z,2.38
2023-05-19T16:03:01.310Z,2.13
2023-05-19T16:05:27.963Z,1.92
2023-05-19T16:07:56.870Z,2.05
2023-05-19T16:10:23.443Z,2.50
2023-05-19T16:12:49.991Z,2.35
2023-05-19T16:15:21.128Z,2.22
2023-05-19T16:17:47.681Z,2.33
2023-05-19T16:20:16.349Z,2.63
2023-05-19T16:22:42.867Z,2.60
2023-05-19T16:25:09.710Z,2.70
2023-05-19T16:27:36.293Z,3.20
2023-05-19T16:30:03.384Z,2.85
2023-05-19T16:32:33.998Z,3.03
2023-05-19T16:35:00.716Z,2.33
2023-05-19T16:37:27.229Z,3.13
2023-05-19T16:39:53.746Z,2.80
2023-05-19T16:42:20.212Z,2.85
2023-05-19T16:44:47.044Z,2.60
2023-05-19T16:47:15.327Z,2.55
2023-05-19T16:49:41.973Z,2.50
2023-05-19T16:52:08.449Z,2.72
2023-05-19T16:54:35.316Z,2.30
2023-05-19T16:57:04.223Z,2.70
2023-05-19T16:59:30.738Z,2.67
2023-05-19T17:01:57.281Z,2.45
2023-05-19T17:04:24.150Z,2.60
2023-05-19T17:06:51.042Z,2.80
2023-05-19T17:09:18.222Z,2.72
2023-05-19T17:11:44.757Z,2.58
2023-05-19T17:14:11.645Z,2.78
2023-05-19T17:16:38.375Z,3.22
2023-05-19T17:19:04.916Z,2.50
2023-05-19T17:21:31.909Z,2.15
2023-05-19T17:23:58.477Z,2.30
2023-05-19T17:26:25.288Z,3.10
2023-05-19T17:28:51.840Z,3.30
2023-05-19T17:31:18.387Z,2.67
2023-05-19T17:33:45.124Z,3.45
2023-05-19T17:36:14.004Z,2.60
2023-05-19T17:38:42.004Z,2.35
2023-05-19T17:41:13.985Z,2.85
2023-05-19T17:43:41.364Z,2.88
2023-05-19T17:46:08.713Z,2.85
2023-05-19T17:48:40.597Z,3.67
2023-05-19T17:51:07.499Z,3.15
2023-05-19T17:53:34.616Z,3.03
2023-05-19T17:56:05.220Z,2.67
2023-05-19T17:58:32.168Z,2.97
2023-05-19T18:01:01.093Z,2.60
2023-05-19T18:03:28.153Z,2.20
2023-05-19T18:05:55.006Z,2.20
2023-05-19T18:08:21.770Z,2.80
2023-05-19T18:10:53.110Z,2.28
2023-05-19T18:13:19.859Z,2.10
2023-05-19T18:15:46.749Z,2.42
2023-05-19T18:18:13.326Z,2.58
2023-05-19T18:20:41.274Z,2.40
2023-05-19T18:23:07.839Z,2.53
2023-05-19T18:25:37.554Z,2.10
2023-05-19T18:28:04.172Z,2.17
2023-05-19T18:30:30.801Z,2.72
2023-05-19T18:32:57.577Z,2.20
2023-05-19T18:35:24.127Z,2.15
2023-05-19T18:37:58.015Z,2.20
2023-05-19T18:40:26.450Z,2.13
2023-05-19T18:42:52.981Z,1.98
2023-05-19T18:45:19.570Z,2.35
2023-05-19T18:47:46.748Z,2.05
2023-05-19T18:50:15.438Z,2.10
2023-05-19T18:52:41.967Z,2.30
2023-05-19T18:55:10.838Z,2.00
2023-05-19T18:57:37.401Z,2.05
2023-05-19T19:00:04.380Z,2.20
2023-05-19T19:02:41.877Z,2.25
2023-05-19T19:05:11.538Z,2.28
2023-05-19T19:07:43.143Z,2.00
2023-05-19T19:10:10.991Z,2.20
2023-05-19T19:12:37.657Z,2.30
2023-05-19T19:15:09.613Z,1.75
2023-05-19T19:17:40.541Z,2.20
2023-05-19T19:20:08.306Z,2.28
2023-05-19T19:22:35.005Z,2.17
2023-05-19T19:25:01.585Z,2.05
2023-05-19T19:27:31.100Z,2.08
2023-05-19T19:29:58.699Z,2.90
2023-05-19T19:32:25.816Z,2.45
2023-05-19T19:34:55.455Z,2.20
2023-05-19T19:37:21.966Z,2.40
2023-05-19T19:39:50.239Z,1.95
2023-05-19T19:42:18.998Z,2.30
2023-05-19T19:44:45.689Z,2.50
2023-05-19T19:47:12.480Z,1.90
2023-05-19T19:49:39.004Z,2.40
2023-05-19T19:52:05.851Z,2.30
2023-05-19T19:54:32.732Z,2.35
2023-05-19T19:56:59.276Z,2.40
2023-05-19T19:59:26.962Z,2.40
2023-05-19T20:01:55.856Z,2.20
2023-05-19T20:04:22.631Z,2.40
2023-05-19T20:06:49.829Z,2.33
2023-05-19T20:09:16.627Z,2.10
2023-05-19T20:11:43.627Z,2.30
2023-05-19T20:14:10.207Z,2.20
2023-05-19T20:16:36.902Z,2.20
2023-05-19T20:19:03.561Z,2.88
2023-05-19T20:21:30.596Z,1.90
2023-05-19T20:23:59.269Z,2.50
2023-05-19T20:26:25.856Z,2.40
2023-05-19T20:28:52.435Z,2.20
2023-05-19T20:31:20.757Z,2.50
2023-05-19T20:33:48.006Z,2.38
2023-05-19T20:36:14.586Z,2.10
2023-05-19T20:38:41.220Z,2.13
2023-05-19T20:41:07.921Z,2.35
2023-05-19T20:43:34.686Z,2.38
2023-05-19T20:46:07.448Z,2.70
2023-05-19T20:48:34.064Z,2.80
2023-05-19T20:51:00.753Z,2.10
2023-05-19T20:53:27.565Z,2.30
2023-05-19T20:55:54.335Z,2.50
2023-05-19T20:58:21.281Z,2.58
2023-05-19T21:00:55.342Z,2.10
2023-05-19T21:03:23.586Z,2.13
2023-05-19T21:05:50.462Z,2.63
2023-05-19T21:08:18.853Z,2.30
2023-05-19T21:10:45.462Z,2.10
2023-05-19T21:13:12.268Z,2.10
2023-05-19T21:15:38.813Z,2.20
2023-05-19T21:18:06.704Z,2.78
2023-05-19T21:20:33.795Z,3.00
2023-05-19T21:23:00.624Z,2.95
2023-05-19T21:25:27.962Z,2.88
2023-05-19T21:27:56.062Z,2.38
2023-05-19T21:30:25.309Z,2.05
2023-05-19T21:32:52.229Z,2.53
2023-05-19T21:35:18.872Z,2.38
2023-05-19T21:37:47.256Z,3.00
2023-05-19T21:40:14.000Z,2.13
2023-05-19T21:42:40.545Z,2.28
2023-05-19T21:45:07.603Z,2.40
2023-05-19T21:47:34.185Z,2.17
2023-05-19T21:50:00.989Z,1.90
2023-05-19T21:52:29.389Z,1.70
2023-05-19T21:54:56.218Z,2.00
2023-05-19T21:57:24.844Z,2.20
2023-05-19T21:59:51.408Z,2.40
2023-05-19T22:02:17.967Z,2.03
2023-05-19T22:04:44.865Z,1.90
2023-05-19T22:07:13.232Z,2.58
2023-05-19T22:09:42.182Z,2.20
2023-05-19T22:12:08.854Z,2.33
2023-05-19T22:14:37.674Z,2.20
2023-05-19T22:17:04.439Z,2.53
2023-05-19T22:19:31.107Z,2.58
2023-05-19T22:22:13.853Z,2.10
2023-05-19T22:24:41.441Z,2.38
2023-05-19T22:27:08.591Z,2.38
2023-05-19T22:29:38.679Z,2.90
2023-05-19T22:32:13.603Z,2.53
2023-05-19T22:34:40.271Z,2.47
2023-05-19T22:37:07.188Z,2.97
2023-05-19T22:39:33.898Z,2.47
2023-05-19T22:42:00.516Z,2.60
2023-05-19T22:44:27.244Z,2.67
2023-05-19T22:46:56.474Z,2.83
2023-05-19T22:49:22.996Z,2.38
2023-05-19T22:51:49.933Z,2.35
2023-05-19T22:54:18.295Z,2.60
2023-05-19T22:56:46.448Z,2.20
2023-05-19T22:59:17.792Z,2.38
2023-05-19T23:01:48.554Z,2.65
2023-05-19T23:04:15.306Z,2.42
2023-05-19T23:06:47.211Z,2.00
2023-05-19T23:09:21.509Z,2.42
2023-05-19T23:11:48.084Z,2.40
2023-05-19T23:14:14.664Z,2.40
2023-05-19T23:16:43.580Z,2.45
2023-05-19T23:19:10.187Z,2.40
2023-05-19T23:21:36.751Z,2.30
2023-05-19T23:24:03.638Z,2.40
2023-05-19T23:26:30.360Z,1.98
2023-05-19T23:28:56.914Z,2.40
2023-05-19T23:31:25.403Z,2.10
2023-05-19T23:33:51.971Z,2.25
2023-05-19T23:36:19.244Z,2.42
2023-05-19T23:38:47.909Z,2.00
2023-05-19T23:41:14.847Z,2.08
2023-05-19T23:43:41.349Z,2.20
2023-05-19T23:46:09.743Z,2.53
2023-05-19T23:48:36.733Z,2.30
2023-05-19T23:51:03.709Z,2.40
2023-05-19T23:53:30.371Z,2.50
2023-05-19T23:55:58.686Z,2.50
2023-05-19T23:58:25.442Z,2.17
